Serenade Of The Seas — C6FV8 — position and weather

sailwx.info

Track history (hours):
 
Tides and Currents Weather Stations Pressure Air Temp Water Temp Dewpoint Dewpoint Depression Visibility Wind Speed Wind Dir Waves Ship Positions

Serenade Of The Seas

Operator: Royal Caribbean Cruises Ltd

Last reported at 2015-May-03 22:34 UTC. Time now 2015-May-04 12:02 UTC.
Position N 49°35' W 000°21'.

Length 294 m; draft 8.5 m.

Type: Ship. MMSI: 311492000.

Date/timePositionNaut miles runAvg speedWind from/ knotsBaromVisibWave heightAir tempDewpointWater temp
2015-May-03 22:34N 49°35' W 000°21'1111.0
2015-May-03 21:34N 49°32' W 000°05'8 7.7
2015-May-03 20:32N 49°29' E 000°06'0 0.0
2015-May-03 19:32N 49°29' E 000°06'0 0.0
2015-May-03 18:32N 49°29' E 000°06'0 0.0
2015-May-03 17:32N 49°29' E 000°06'0 0.0
2015-May-03 16:32N 49°29' E 000°06'0 0.0
2015-May-03 15:32N 49°29' E 000°06'0 0.0
2015-May-03 14:32N 49°29' E 000°06'0 0.0
2015-May-03 13:29N 49°29' E 000°06'0 0.0
2015-May-03 12:32N 49°29' E 000°06'0 0.0
2015-May-03 11:32N 49°29' E 000°06'0 0.0
2015-May-03 10:32N 49°29' E 000°06'0 0.0
2015-May-03 09:32N 49°29' E 000°06'0 0.0
2015-May-03 08:32N 49°29' E 000°06'0 0.0
2015-May-03 07:32N 49°29' E 000°06'0 0.0
2015-May-03 06:32N 49°29' E 000°06'0 0.0
2015-May-03 05:32N 49°29' E 000°06'0 0.0
2015-May-03 04:29N 49°29' E 000°06'4 4.2
2015-May-03 03:33N 49°30' E 000°01'1111.0
2015-May-03 02:33N 49°34' W 000°15'1414.2
2015-May-03 01:33N 49°41' W 000°34'6315.3
2015-May-02 21:25N 50°19' W 001°53'1719.5
2015-May-02 20:33N 50°29' W 002°14'9 9.1
2015-May-02 19:33N 50°34' W 002°26'0 0.0
2015-May-02 18:33N 50°34' W 002°26'0 0.0
2015-May-02 17:33N 50°34' W 002°26'0 0.0
2015-May-02 16:33N 50°34' W 002°26'0 0.0
2015-May-02 15:33N 50°34' W 002°26'0 0.0
2015-May-02 14:33N 50°34' W 002°26'0 0.0
2015-May-02 13:33N 50°34' W 002°26'0 0.0
2015-May-02 12:30N 50°34' W 002°26'6 1.5
2015-May-02 08:34N 50°30' W 002°20'1817.3
2015-May-02 07:33N 50°20' W 002°43'2020.7
2015-May-02 06:33N 50°08' W 003°09'19516.0
2015-May-01 18:24N 51°30' W 007°49'1618.9
2015-May-01 17:33N 51°41' W 008°08'1211.7
2015-May-01 16:33N 51°51' W 008°17'1 0.9
2015-May-01 15:32N 51°51' W 008°18'0 0.0
2015-May-01 14:32N 51°51' W 008°18'0 0.0
2015-May-01 13:32N 51°51' W 008°18'0 0.0
2015-May-01 12:32N 51°51' W 008°18'0 0.0
2015-May-01 11:32N 51°51' W 008°18'0 0.0
2015-May-01 10:32N 51°51' W 008°18'0 0.0
2015-May-01 09:32N 51°51' W 008°18'0 0.0
2015-May-01 08:32N 51°51' W 008°18'0 0.0
2015-May-01 07:33N 51°51' W 008°18'6 6.2
2015-May-01 06:33N 51°45' W 008°15'1313.2
2015-May-01 05:33N 51°32' W 008°19'1616.4
2015-May-01 04:33N 51°27' W 008°44'1716.8
2015-May-01 03:33N 51°22' W 009°10'1717.0
2015-May-01 02:33N 51°16' W 009°35'1717.3
2015-May-01 01:33N 51°11' W 010°02'  
2015-Apr-24 23:32N 42°23' W 070°46'3 0.2
2015-Apr-24 09:11N 42°24' W 070°51'  
Track history (hours):
 
Tides and Currents Weather Stations Pressure Air Temp Water Temp Dewpoint Dewpoint Depression Visibility Wind Speed Wind Dir Waves Ship Positions

Serenade Of The Seas

Operator: Royal Caribbean Cruises Ltd

Last reported at 2015-May-03 22:34 UTC. Time now 2015-May-04 12:02 UTC.
Position N 49°35' W 000°21'.

Length 294 m; draft 8.5 m.

Type: Ship. MMSI: 311492000.

Date/timePositionNaut miles runAvg speedWind from/ knotsBaromVisibWave heightAir tempDewpointWater temp
2015-May-03 22:34N 49°35' W 000°21'1111.0
2015-May-03 21:34N 49°32' W 000°05'8 7.7
2015-May-03 20:32N 49°29' E 000°06'0 0.0
2015-May-03 19:32N 49°29' E 000°06'0 0.0
2015-May-03 18:32N 49°29' E 000°06'0 0.0
2015-May-03 17:32N 49°29' E 000°06'0 0.0
2015-May-03 16:32N 49°29' E 000°06'0 0.0
2015-May-03 15:32N 49°29' E 000°06'0 0.0
2015-May-03 14:32N 49°29' E 000°06'0 0.0
2015-May-03 13:29N 49°29' E 000°06'0 0.0
2015-May-03 12:32N 49°29' E 000°06'0 0.0
2015-May-03 11:32N 49°29' E 000°06'0 0.0
2015-May-03 10:32N 49°29' E 000°06'0 0.0
2015-May-03 09:32N 49°29' E 000°06'0 0.0
2015-May-03 08:32N 49°29' E 000°06'0 0.0
2015-May-03 07:32N 49°29' E 000°06'0 0.0
2015-May-03 06:32N 49°29' E 000°06'0 0.0
2015-May-03 05:32N 49°29' E 000°06'0 0.0
2015-May-03 04:29N 49°29' E 000°06'4 4.2
2015-May-03 03:33N 49°30' E 000°01'1111.0
2015-May-03 02:33N 49°34' W 000°15'1414.2
2015-May-03 01:33N 49°41' W 000°34'6315.3
2015-May-02 21:25N 50°19' W 001°53'1719.5
2015-May-02 20:33N 50°29' W 002°14'9 9.1
2015-May-02 19:33N 50°34' W 002°26'0 0.0
2015-May-02 18:33N 50°34' W 002°26'0 0.0
2015-May-02 17:33N 50°34' W 002°26'0 0.0
2015-May-02 16:33N 50°34' W 002°26'0 0.0
2015-May-02 15:33N 50°34' W 002°26'0 0.0
2015-May-02 14:33N 50°34' W 002°26'0 0.0
2015-May-02 13:33N 50°34' W 002°26'0 0.0
2015-May-02 12:30N 50°34' W 002°26'6 1.5
2015-May-02 08:34N 50°30' W 002°20'1817.3
2015-May-02 07:33N 50°20' W 002°43'2020.7
2015-May-02 06:33N 50°08' W 003°09'19516.0
2015-May-01 18:24N 51°30' W 007°49'1618.9
2015-May-01 17:33N 51°41' W 008°08'1211.7
2015-May-01 16:33N 51°51' W 008°17'1 0.9
2015-May-01 15:32N 51°51' W 008°18'0 0.0
2015-May-01 14:32N 51°51' W 008°18'0 0.0
2015-May-01 13:32N 51°51' W 008°18'0 0.0
2015-May-01 12:32N 51°51' W 008°18'0 0.0
2015-May-01 11:32N 51°51' W 008°18'0 0.0
2015-May-01 10:32N 51°51' W 008°18'0 0.0
2015-May-01 09:32N 51°51' W 008°18'0 0.0
2015-May-01 08:32N 51°51' W 008°18'0 0.0
2015-May-01 07:33N 51°51' W 008°18'6 6.2
2015-May-01 06:33N 51°45' W 008°15'1313.2
2015-May-01 05:33N 51°32' W 008°19'1616.4
2015-May-01 04:33N 51°27' W 008°44'1716.8
2015-May-01 03:33N 51°22' W 009°10'1717.0
2015-May-01 02:33N 51°16' W 009°35'1717.3
2015-May-01 01:33N 51°11' W 010°02'  
2015-Apr-24 23:32N 42°23' W 070°46'3 0.2
2015-Apr-24 09:11N 42°24' W 070°51'  

Dump ship's entire track history